sensor_id;sensor_type;location;lat;lon;timestamp;P1;durP1;ratioP1;P2;durP2;ratioP2
31390;SDS011;18022;45.492;11.548;2022-08-11T00:00:18;4.93;;;1.80;;
31390;SDS011;18022;45.492;11.548;2022-08-11T00:02:46;6.20;;;2.20;;
31390;SDS011;18022;45.492;11.548;2022-08-11T00:05:16;3.75;;;1.90;;
31390;SDS011;18022;45.492;11.548;2022-08-11T00:07:45;3.28;;;1.75;;
31390;SDS011;18022;45.492;11.548;2022-08-11T00:10:15;2.70;;;1.77;;
31390;SDS011;18022;45.492;11.548;2022-08-11T00:12:43;4.50;;;2.55;;
31390;SDS011;18022;45.492;11.548;2022-08-11T00:15:23;4.38;;;1.83;;
31390;SDS011;18022;45.492;11.548;2022-08-11T00:17:58;3.92;;;2.10;;
31390;SDS011;18022;45.492;11.548;2022-08-11T00:20:32;4.53;;;2.00;;
31390;SDS011;18022;45.492;11.548;2022-08-11T00:23:05;4.18;;;1.85;;
31390;SDS011;18022;45.492;11.548;2022-08-11T00:25:36;3.17;;;2.20;;
31390;SDS011;18022;45.492;11.548;2022-08-11T00:28:26;3.40;;;1.98;;
31390;SDS011;18022;45.492;11.548;2022-08-11T00:31:06;3.90;;;2.10;;
31390;SDS011;18022;45.492;11.548;2022-08-11T00:33:39;5.82;;;2.00;;
31390;SDS011;18022;45.492;11.548;2022-08-11T00:36:07;6.97;;;2.33;;
31390;SDS011;18022;45.492;11.548;2022-08-11T00:38:38;3.83;;;2.35;;
31390;SDS011;18022;45.492;11.548;2022-08-11T00:50:20;6.05;;;2.38;;
31390;SDS011;18022;45.492;11.548;2022-08-11T00:55:24;4.22;;;2.22;;
31390;SDS011;18022;45.492;11.548;2022-08-11T01:09:40;4.18;;;2.10;;
31390;SDS011;18022;45.492;11.548;2022-08-11T01:38:37;5.00;;;1.92;;
31390;SDS011;18022;45.492;11.548;2022-08-11T01:44:18;6.72;;;1.95;;
31390;SDS011;18022;45.492;11.548;2022-08-11T02:10:13;6.40;;;2.25;;
31390;SDS011;18022;45.492;11.548;2022-08-11T02:13:11;6.22;;;2.30;;
31390;SDS011;18022;45.492;11.548;2022-08-11T02:18:47;3.65;;;2.10;;
31390;SDS011;18022;45.492;11.548;2022-08-11T02:21:43;2.97;;;2.20;;
31390;SDS011;18022;45.492;11.548;2022-08-11T02:24:34;3.10;;;2.28;;
31390;SDS011;18022;45.492;11.548;2022-08-11T02:27:22;4.00;;;1.90;;
31390;SDS011;18022;45.492;11.548;2022-08-11T02:32:31;3.85;;;2.47;;
31390;SDS011;18022;45.492;11.548;2022-08-11T02:36:16;3.70;;;2.17;;
31390;SDS011;18022;45.492;11.548;2022-08-11T02:41:18;2.22;;;2.03;;
31390;SDS011;18022;45.492;11.548;2022-08-11T02:49:13;4.95;;;2.25;;
31390;SDS011;18022;45.492;11.548;2022-08-11T02:55:26;2.83;;;2.13;;
31390;SDS011;18022;45.492;11.548;2022-08-11T03:00:46;4.22;;;2.10;;
31390;SDS011;18022;45.492;11.548;2022-08-11T03:03:37;2.85;;;2.10;;
31390;SDS011;18022;45.492;11.548;2022-08-11T03:14:37;2.20;;;2.00;;
31390;SDS011;18022;45.492;11.548;2022-08-11T03:20:50;2.63;;;1.80;;
31390;SDS011;18022;45.492;11.548;2022-08-11T03:23:36;2.60;;;1.80;;
31390;SDS011;18022;45.492;11.548;2022-08-11T03:26:12;4.50;;;1.80;;
31390;SDS011;18022;45.492;11.548;2022-08-11T03:29:07;3.40;;;1.75;;
31390;SDS011;18022;45.492;11.548;2022-08-11T03:31:58;7.20;;;2.17;;
31390;SDS011;18022;45.492;11.548;2022-08-11T03:34:43;2.30;;;2.00;;
31390;SDS011;18022;45.492;11.548;2022-08-11T03:40:10;4.73;;;2.03;;
31390;SDS011;18022;45.492;11.548;2022-08-11T03:46:13;1.83;;;1.73;;
31390;SDS011;18022;45.492;11.548;2022-08-11T04:00:06;6.13;;;2.20;;
31390;SDS011;18022;45.492;11.548;2022-08-11T04:23:06;1.15;;;1.05;;
31390;SDS011;18022;45.492;11.548;2022-08-11T04:35:11;2.40;;;1.58;;
31390;SDS011;18022;45.492;11.548;2022-08-11T05:12:29;1.50;;;1.40;;
31390;SDS011;18022;45.492;11.548;2022-08-11T05:15:12;2.22;;;1.70;;
31390;SDS011;18022;45.492;11.548;2022-08-11T05:21:08;4.77;;;1.70;;
31390;SDS011;18022;45.492;11.548;2022-08-11T05:24:15;6.82;;;2.00;;
31390;SDS011;18022;45.492;11.548;2022-08-11T05:27:18;1.50;;;1.40;;
31390;SDS011;18022;45.492;11.548;2022-08-11T05:30:06;3.42;;;1.80;;
31390;SDS011;18022;45.492;11.548;2022-08-11T05:33:05;5.95;;;1.70;;
31390;SDS011;18022;45.492;11.548;2022-08-11T05:36:06;2.75;;;1.73;;
31390;SDS011;18022;45.492;11.548;2022-08-11T05:38:33;1.95;;;1.67;;
31390;SDS011;18022;45.492;11.548;2022-08-11T05:41:20;4.35;;;1.73;;
31390;SDS011;18022;45.492;11.548;2022-08-11T05:44:09;2.13;;;1.38;;
31390;SDS011;18022;45.492;11.548;2022-08-11T05:46:54;10.98;;;1.58;;
31390;SDS011;18022;45.492;11.548;2022-08-11T05:49:39;3.50;;;1.40;;
31390;SDS011;18022;45.492;11.548;2022-08-11T05:52:27;1.67;;;1.52;;
31390;SDS011;18022;45.492;11.548;2022-08-11T05:55:13;3.47;;;1.48;;
31390;SDS011;18022;45.492;11.548;2022-08-11T05:57:59;1.95;;;1.48;;
31390;SDS011;18022;45.492;11.548;2022-08-11T06:00:29;2.25;;;1.83;;
31390;SDS011;18022;45.492;11.548;2022-08-11T06:03:00;2.25;;;1.70;;
31390;SDS011;18022;45.492;11.548;2022-08-11T06:05:34;3.05;;;1.65;;
31390;SDS011;18022;45.492;11.548;2022-08-11T06:08:04;3.13;;;1.85;;
31390;SDS011;18022;45.492;11.548;2022-08-11T06:10:32;8.05;;;1.77;;
31390;SDS011;18022;45.492;11.548;2022-08-11T06:12:59;6.22;;;1.80;;
31390;SDS011;18022;45.492;11.548;2022-08-11T06:15:27;2.00;;;1.45;;
31390;SDS011;18022;45.492;11.548;2022-08-11T06:17:54;1.55;;;1.45;;
31390;SDS011;18022;45.492;11.548;2022-08-11T06:20:23;2.70;;;1.70;;
31390;SDS011;18022;45.492;11.548;2022-08-11T06:23:00;4.28;;;1.58;;
31390;SDS011;18022;45.492;11.548;2022-08-11T06:25:32;2.05;;;1.65;;
31390;SDS011;18022;45.492;11.548;2022-08-11T06:28:00;3.15;;;1.70;;
31390;SDS011;18022;45.492;11.548;2022-08-11T06:30:33;3.13;;;1.80;;
31390;SDS011;18022;45.492;11.548;2022-08-11T06:38:06;2.53;;;1.50;;
31390;SDS011;18022;45.492;11.548;2022-08-11T06:44:21;3.65;;;1.40;;
31390;SDS011;18022;45.492;11.548;2022-08-11T06:46:34;3.05;;;1.60;;
31390;SDS011;18022;45.492;11.548;2022-08-11T06:49:06;2.65;;;1.35;;
31390;SDS011;18022;45.492;11.548;2022-08-11T06:51:54;5.07;;;1.50;;
31390;SDS011;18022;45.492;11.548;2022-08-11T06:54:22;1.80;;;1.23;;
31390;SDS011;18022;45.492;11.548;2022-08-11T06:56:49;3.53;;;1.45;;
31390;SDS011;18022;45.492;11.548;2022-08-11T06:59:34;2.10;;;1.30;;
31390;SDS011;18022;45.492;11.548;2022-08-11T07:02:23;1.60;;;1.38;;
31390;SDS011;18022;45.492;11.548;2022-08-11T07:05:01;1.70;;;1.60;;
31390;SDS011;18022;45.492;11.548;2022-08-11T07:13:43;2.27;;;1.30;;
31390;SDS011;18022;45.492;11.548;2022-08-11T07:16:29;4.40;;;1.60;;
31390;SDS011;18022;45.492;11.548;2022-08-11T07:19:03;4.47;;;1.48;;
31390;SDS011;18022;45.492;11.548;2022-08-11T07:21:49;5.07;;;1.63;;
31390;SDS011;18022;45.492;11.548;2022-08-11T07:24:36;2.03;;;1.50;;
31390;SDS011;18022;45.492;11.548;2022-08-11T07:27:30;3.50;;;1.20;;
31390;SDS011;18022;45.492;11.548;2022-08-11T07:30:39;3.78;;;1.40;;
31390;SDS011;18022;45.492;11.548;2022-08-11T07:33:06;4.53;;;1.30;;
31390;SDS011;18022;45.492;11.548;2022-08-11T07:35:41;3.72;;;1.60;;
31390;SDS011;18022;45.492;11.548;2022-08-11T07:38:13;2.93;;;1.30;;
31390;SDS011;18022;45.492;11.548;2022-08-11T07:40:45;6.10;;;1.48;;
31390;SDS011;18022;45.492;11.548;2022-08-11T07:43:11;3.67;;;1.35;;
31390;SDS011;18022;45.492;11.548;2022-08-11T07:45:41;2.50;;;1.30;;
31390;SDS011;18022;45.492;11.548;2022-08-11T07:48:26;7.53;;;1.40;;
31390;SDS011;18022;45.492;11.548;2022-08-11T07:51:13;4.68;;;1.70;;
31390;SDS011;18022;45.492;11.548;2022-08-11T07:54:03;4.10;;;1.42;;
31390;SDS011;18022;45.492;11.548;2022-08-11T07:56:34;4.70;;;1.33;;
31390;SDS011;18022;45.492;11.548;2022-08-11T07:59:01;2.47;;;1.20;;
31390;SDS011;18022;45.492;11.548;2022-08-11T08:01:49;1.05;;;0.93;;
31390;SDS011;18022;45.492;11.548;2022-08-11T08:04:33;2.70;;;1.23;;
31390;SDS011;18022;45.492;11.548;2022-08-11T08:07:19;1.15;;;1.05;;
31390;SDS011;18022;45.492;11.548;2022-08-11T08:10:05;3.58;;;1.15;;
31390;SDS011;18022;45.492;11.548;2022-08-11T08:12:52;2.00;;;1.17;;
31390;SDS011;18022;45.492;11.548;2022-08-11T08:15:37;5.67;;;1.30;;
31390;SDS011;18022;45.492;11.548;2022-08-11T08:18:23;1.70;;;0.90;;
31390;SDS011;18022;45.492;11.548;2022-08-11T08:20:50;1.92;;;1.23;;
31390;SDS011;18022;45.492;11.548;2022-08-11T08:23:18;2.20;;;0.90;;
31390;SDS011;18022;45.492;11.548;2022-08-11T08:25:56;3.50;;;1.10;;
31390;SDS011;18022;45.492;11.548;2022-08-11T08:28:25;2.17;;;1.10;;
31390;SDS011;18022;45.492;11.548;2022-08-11T08:30:52;2.33;;;1.23;;
31390;SDS011;18022;45.492;11.548;2022-08-11T08:33:21;5.85;;;1.17;;
31390;SDS011;18022;45.492;11.548;2022-08-11T08:35:59;6.18;;;1.00;;
31390;SDS011;18022;45.492;11.548;2022-08-11T08:38:57;3.75;;;0.90;;
31390;SDS011;18022;45.492;11.548;2022-08-11T08:41:23;3.47;;;1.00;;
31390;SDS011;18022;45.492;11.548;2022-08-11T08:43:53;4.43;;;1.20;;
31390;SDS011;18022;45.492;11.548;2022-08-11T08:46:24;1.70;;;1.00;;
31390;SDS011;18022;45.492;11.548;2022-08-11T08:48:54;2.55;;;1.05;;
31390;SDS011;18022;45.492;11.548;2022-08-11T08:51:24;2.78;;;0.90;;
31390;SDS011;18022;45.492;11.548;2022-08-11T08:54:03;1.15;;;1.02;;
31390;SDS011;18022;45.492;11.548;2022-08-11T08:56:35;2.78;;;1.10;;
31390;SDS011;18022;45.492;11.548;2022-08-11T08:59:04;9.60;;;1.38;;
31390;SDS011;18022;45.492;11.548;2022-08-11T09:01:42;2.50;;;1.20;;
31390;SDS011;18022;45.492;11.548;2022-08-11T09:04:15;4.00;;;1.92;;
31390;SDS011;18022;45.492;11.548;2022-08-11T09:06:44;1.55;;;0.85;;
31390;SDS011;18022;45.492;11.548;2022-08-11T09:09:11;2.40;;;1.00;;
31390;SDS011;18022;45.492;11.548;2022-08-11T09:11:38;2.47;;;0.95;;
31390;SDS011;18022;45.492;11.548;2022-08-11T09:14:48;4.57;;;1.20;;
31390;SDS011;18022;45.492;11.548;2022-08-11T09:17:25;3.88;;;1.08;;
31390;SDS011;18022;45.492;11.548;2022-08-11T09:19:54;2.95;;;0.95;;
31390;SDS011;18022;45.492;11.548;2022-08-11T09:22:25;3.60;;;0.88;;
31390;SDS011;18022;45.492;11.548;2022-08-11T09:25:11;1.80;;;1.17;;
31390;SDS011;18022;45.492;11.548;2022-08-11T09:27:55;3.97;;;1.00;;
31390;SDS011;18022;45.492;11.548;2022-08-11T09:30:23;1.38;;;0.98;;
31390;SDS011;18022;45.492;11.548;2022-08-11T09:32:54;0.98;;;0.88;;
31390;SDS011;18022;45.492;11.548;2022-08-11T09:35:25;1.23;;;1.13;;
31390;SDS011;18022;45.492;11.548;2022-08-11T09:37:53;1.17;;;1.05;;
31390;SDS011;18022;45.492;11.548;2022-08-11T09:40:41;5.47;;;1.42;;
31390;SDS011;18022;45.492;11.548;2022-08-11T09:43:09;1.88;;;1.20;;
31390;SDS011;18022;45.492;11.548;2022-08-11T09:45:56;2.33;;;1.10;;
31390;SDS011;18022;45.492;11.548;2022-08-11T09:48:23;2.90;;;1.30;;
31390;SDS011;18022;45.492;11.548;2022-08-11T09:50:53;1.70;;;0.98;;
31390;SDS011;18022;45.492;11.548;2022-08-11T09:53:20;3.42;;;1.10;;
31390;SDS011;18022;45.492;11.548;2022-08-11T09:55:48;2.70;;;1.65;;
31390;SDS011;18022;45.492;11.548;2022-08-11T09:58:14;1.38;;;1.10;;
31390;SDS011;18022;45.492;11.548;2022-08-11T10:00:42;1.50;;;1.02;;
31390;SDS011;18022;45.492;11.548;2022-08-11T10:03:14;2.10;;;1.20;;
31390;SDS011;18022;45.492;11.548;2022-08-11T10:05:48;6.65;;;1.20;;
31390;SDS011;18022;45.492;11.548;2022-08-11T10:08:38;2.88;;;1.35;;
31390;SDS011;18022;45.492;11.548;2022-08-11T10:11:05;2.60;;;1.08;;
31390;SDS011;18022;45.492;11.548;2022-08-11T10:13:36;1.30;;;1.20;;
31390;SDS011;18022;45.492;11.548;2022-08-11T10:16:25;6.40;;;1.38;;
31390;SDS011;18022;45.492;11.548;2022-08-11T10:18:54;1.95;;;1.17;;
31390;SDS011;18022;45.492;11.548;2022-08-11T10:24:02;2.22;;;0.88;;
31390;SDS011;18022;45.492;11.548;2022-08-11T10:26:49;4.93;;;1.60;;
31390;SDS011;18022;45.492;11.548;2022-08-11T10:29:23;3.03;;;1.10;;
31390;SDS011;18022;45.492;11.548;2022-08-11T10:32:08;1.48;;;1.00;;
31390;SDS011;18022;45.492;11.548;2022-08-11T10:34:54;3.42;;;1.20;;
31390;SDS011;18022;45.492;11.548;2022-08-11T10:37:23;1.52;;;1.15;;
31390;SDS011;18022;45.492;11.548;2022-08-11T10:39:50;4.47;;;1.27;;
31390;SDS011;18022;45.492;11.548;2022-08-11T10:42:17;5.13;;;1.30;;
31390;SDS011;18022;45.492;11.548;2022-08-11T10:45:05;3.42;;;1.10;;
31390;SDS011;18022;45.492;11.548;2022-08-11T10:47:52;2.25;;;1.25;;
31390;SDS011;18022;45.492;11.548;2022-08-11T10:50:22;6.97;;;1.40;;
31390;SDS011;18022;45.492;11.548;2022-08-11T10:53:07;1.30;;;1.10;;
31390;SDS011;18022;45.492;11.548;2022-08-11T10:55:52;2.42;;;1.20;;
31390;SDS011;18022;45.492;11.548;2022-08-11T10:58:38;3.42;;;1.50;;
31390;SDS011;18022;45.492;11.548;2022-08-11T11:01:14;1.90;;;1.00;;
31390;SDS011;18022;45.492;11.548;2022-08-11T11:03:57;1.27;;;1.10;;
31390;SDS011;18022;45.492;11.548;2022-08-11T11:11:58;2.67;;;1.20;;
31390;SDS011;18022;45.492;11.548;2022-08-11T11:14:46;2.38;;;1.40;;
31390;SDS011;18022;45.492;11.548;2022-08-11T11:18:06;4.30;;;1.50;;
31390;SDS011;18022;45.492;11.548;2022-08-11T11:20:52;2.13;;;1.10;;
31390;SDS011;18022;45.492;11.548;2022-08-11T11:23:37;4.03;;;0.90;;
31390;SDS011;18022;45.492;11.548;2022-08-11T11:37:07;2.65;;;1.15;;
31390;SDS011;18022;45.492;11.548;2022-08-11T11:39:37;1.13;;;1.02;;
31390;SDS011;18022;45.492;11.548;2022-08-11T11:42:08;6.23;;;1.17;;
31390;SDS011;18022;45.492;11.548;2022-08-11T11:44:38;1.65;;;1.20;;
31390;SDS011;18022;45.492;11.548;2022-08-11T11:47:07;2.33;;;1.00;;
31390;SDS011;18022;45.492;11.548;2022-08-11T11:49:36;1.33;;;1.23;;
31390;SDS011;18022;45.492;11.548;2022-08-11T11:52:04;5.65;;;1.38;;
31390;SDS011;18022;45.492;11.548;2022-08-11T11:54:30;3.78;;;1.13;;
31390;SDS011;18022;45.492;11.548;2022-08-11T11:59:44;4.43;;;1.10;;
31390;SDS011;18022;45.492;11.548;2022-08-11T12:02:29;3.60;;;1.25;;
31390;SDS011;18022;45.492;11.548;2022-08-11T12:04:55;1.75;;;1.23;;
31390;SDS011;18022;45.492;11.548;2022-08-11T12:07:21;1.83;;;1.20;;
31390;SDS011;18022;45.492;11.548;2022-08-11T12:10:06;4.47;;;1.10;;
31390;SDS011;18022;45.492;11.548;2022-08-11T12:12:33;3.17;;;1.20;;
31390;SDS011;18022;45.492;11.548;2022-08-11T12:15:17;1.27;;;1.13;;
31390;SDS011;18022;45.492;11.548;2022-08-11T12:17:43;4.15;;;1.10;;
31390;SDS011;18022;45.492;11.548;2022-08-11T12:20:10;1.33;;;1.00;;
31390;SDS011;18022;45.492;11.548;2022-08-11T12:22:39;2.10;;;1.00;;
31390;SDS011;18022;45.492;11.548;2022-08-11T12:25:23;4.57;;;0.88;;
31390;SDS011;18022;45.492;11.548;2022-08-11T12:28:08;1.20;;;0.98;;
31390;SDS011;18022;45.492;11.548;2022-08-11T12:30:34;2.88;;;1.20;;
31390;SDS011;18022;45.492;11.548;2022-08-11T12:33:00;2.53;;;1.08;;
31390;SDS011;18022;45.492;11.548;2022-08-11T12:37:53;1.17;;;1.08;;
31390;SDS011;18022;45.492;11.548;2022-08-11T12:40:24;2.17;;;0.90;;
31390;SDS011;18022;45.492;11.548;2022-08-11T12:43:11;2.10;;;1.02;;
31390;SDS011;18022;45.492;11.548;2022-08-11T12:46:01;1.25;;;0.82;;
31390;SDS011;18022;45.492;11.548;2022-08-11T12:48:31;7.95;;;1.15;;
31390;SDS011;18022;45.492;11.548;2022-08-11T12:51:40;5.47;;;1.33;;
31390;SDS011;18022;45.492;11.548;2022-08-11T12:57:22;4.03;;;1.00;;
31390;SDS011;18022;45.492;11.548;2022-08-11T13:00:08;2.45;;;1.00;;
31390;SDS011;18022;45.492;11.548;2022-08-11T13:02:53;3.53;;;1.02;;
31390;SDS011;18022;45.492;11.548;2022-08-11T13:05:39;2.03;;;1.10;;
31390;SDS011;18022;45.492;11.548;2022-08-11T13:08:06;2.53;;;1.13;;
31390;SDS011;18022;45.492;11.548;2022-08-11T13:10:33;3.65;;;1.00;;
31390;SDS011;18022;45.492;11.548;2022-08-11T13:13:17;1.10;;;1.00;;
31390;SDS011;18022;45.492;11.548;2022-08-11T13:15:47;6.63;;;1.10;;
31390;SDS011;18022;45.492;11.548;2022-08-11T13:18:14;1.75;;;1.10;;
31390;SDS011;18022;45.492;11.548;2022-08-11T13:20:42;2.10;;;1.10;;
31390;SDS011;18022;45.492;11.548;2022-08-11T13:23:12;3.53;;;1.10;;
31390;SDS011;18022;45.492;11.548;2022-08-11T13:25:39;6.30;;;1.20;;
31390;SDS011;18022;45.492;11.548;2022-08-11T13:28:06;2.13;;;0.90;;
31390;SDS011;18022;45.492;11.548;2022-08-11T13:30:32;2.20;;;1.30;;
31390;SDS011;18022;45.492;11.548;2022-08-11T13:33:17;1.75;;;1.23;;
31390;SDS011;18022;45.492;11.548;2022-08-11T13:35:45;4.40;;;1.20;;
31390;SDS011;18022;45.492;11.548;2022-08-11T13:38:14;1.25;;;1.08;;
31390;SDS011;18022;45.492;11.548;2022-08-11T13:40:42;2.17;;;1.35;;
31390;SDS011;18022;45.492;11.548;2022-08-11T13:45:37;1.30;;;1.13;;
31390;SDS011;18022;45.492;11.548;2022-08-11T13:48:05;1.27;;;0.82;;
31390;SDS011;18022;45.492;11.548;2022-08-11T13:50:33;5.25;;;1.02;;
31390;SDS011;18022;45.492;11.548;2022-08-11T13:53:23;2.70;;;1.33;;
31390;SDS011;18022;45.492;11.548;2022-08-11T13:55:50;0.90;;;0.90;;
31390;SDS011;18022;45.492;11.548;2022-08-11T13:58:17;2.03;;;0.85;;
31390;SDS011;18022;45.492;11.548;2022-08-11T14:00:45;1.20;;;1.00;;
31390;SDS011;18022;45.492;11.548;2022-08-11T14:03:14;1.40;;;1.27;;
31390;SDS011;18022;45.492;11.548;2022-08-11T14:05:48;6.13;;;1.15;;
31390;SDS011;18022;45.492;11.548;2022-08-11T14:08:23;3.75;;;1.20;;
31390;SDS011;18022;45.492;11.548;2022-08-11T14:10:51;1.08;;;1.00;;
31390;SDS011;18022;45.492;11.548;2022-08-11T14:13:39;4.25;;;1.10;;
31390;SDS011;18022;45.492;11.548;2022-08-11T14:16:09;1.70;;;1.15;;
31390;SDS011;18022;45.492;11.548;2022-08-11T14:18:43;3.25;;;1.13;;
31390;SDS011;18022;45.492;11.548;2022-08-11T14:21:12;2.30;;;1.00;;
31390;SDS011;18022;45.492;11.548;2022-08-11T14:23:58;3.58;;;1.40;;
31390;SDS011;18022;45.492;11.548;2022-08-11T14:26:24;1.83;;;1.02;;
31390;SDS011;18022;45.492;11.548;2022-08-11T14:29:08;3.28;;;1.15;;
31390;SDS011;18022;45.492;11.548;2022-08-11T14:31:37;2.97;;;1.35;;
31390;SDS011;18022;45.492;11.548;2022-08-11T14:34:18;4.45;;;0.90;;
31390;SDS011;18022;45.492;11.548;2022-08-11T14:36:47;2.03;;;1.10;;
31390;SDS011;18022;45.492;11.548;2022-08-11T14:39:18;1.25;;;1.00;;
31390;SDS011;18022;45.492;11.548;2022-08-11T14:41:48;6.47;;;1.27;;
31390;SDS011;18022;45.492;11.548;2022-08-11T14:44:38;1.55;;;0.73;;
31390;SDS011;18022;45.492;11.548;2022-08-11T14:47:26;1.27;;;0.93;;
31390;SDS011;18022;45.492;11.548;2022-08-11T14:52:19;0.80;;;0.80;;
31390;SDS011;18022;45.492;11.548;2022-08-11T14:54:47;3.92;;;1.33;;
31390;SDS011;18022;45.492;11.548;2022-08-11T14:57:34;1.45;;;1.17;;
31390;SDS011;18022;45.492;11.548;2022-08-11T15:00:03;5.22;;;1.10;;
31390;SDS011;18022;45.492;11.548;2022-08-11T15:02:32;1.45;;;1.00;;
31390;SDS011;18022;45.492;11.548;2022-08-11T15:05:19;3.90;;;1.27;;
31390;SDS011;18022;45.492;11.548;2022-08-11T15:07:46;2.42;;;1.40;;
31390;SDS011;18022;45.492;11.548;2022-08-11T15:10:12;1.15;;;1.00;;
31390;SDS011;18022;45.492;11.548;2022-08-11T15:12:40;3.47;;;1.23;;
31390;SDS011;18022;45.492;11.548;2022-08-11T15:15:06;3.08;;;1.27;;
31390;SDS011;18022;45.492;11.548;2022-08-11T15:17:53;4.47;;;1.00;;
31390;SDS011;18022;45.492;11.548;2022-08-11T15:20:20;6.63;;;0.98;;
31390;SDS011;18022;45.492;11.548;2022-08-11T15:23:07;1.77;;;1.15;;
31390;SDS011;18022;45.492;11.548;2022-08-11T15:25:59;3.72;;;1.08;;
31390;SDS011;18022;45.492;11.548;2022-08-11T15:28:27;2.53;;;0.98;;
31390;SDS011;18022;45.492;11.548;2022-08-11T15:31:15;1.98;;;0.90;;
31390;SDS011;18022;45.492;11.548;2022-08-11T15:33:52;1.60;;;0.90;;
31390;SDS011;18022;45.492;11.548;2022-08-11T15:36:41;2.33;;;1.10;;
31390;SDS011;18022;45.492;11.548;2022-08-11T15:42:34;1.60;;;1.20;;
31390;SDS011;18022;45.492;11.548;2022-08-11T15:45:23;1.17;;;1.02;;
31390;SDS011;18022;45.492;11.548;2022-08-11T15:48:09;1.52;;;0.98;;
31390;SDS011;18022;45.492;11.548;2022-08-11T15:50:39;3.17;;;1.05;;
31390;SDS011;18022;45.492;11.548;2022-08-11T15:53:17;1.52;;;1.20;;
31390;SDS011;18022;45.492;11.548;2022-08-11T15:55:47;1.13;;;0.77;;
31390;SDS011;18022;45.492;11.548;2022-08-11T15:58:13;3.65;;;0.80;;
31390;SDS011;18022;45.492;11.548;2022-08-11T16:00:59;1.67;;;0.90;;
31390;SDS011;18022;45.492;11.548;2022-08-11T16:03:53;1.67;;;0.77;;
31390;SDS011;18022;45.492;11.548;2022-08-11T16:09:23;3.67;;;1.13;;
31390;SDS011;18022;45.492;11.548;2022-08-11T16:11:53;1.10;;;1.00;;
31390;SDS011;18022;45.492;11.548;2022-08-11T16:14:22;1.13;;;0.95;;
31390;SDS011;18022;45.492;11.548;2022-08-11T16:17:09;1.55;;;0.93;;
31390;SDS011;18022;45.492;11.548;2022-08-11T16:19:36;3.47;;;0.77;;
31390;SDS011;18022;45.492;11.548;2022-08-11T16:22:08;2.63;;;1.00;;
31390;SDS011;18022;45.492;11.548;2022-08-11T16:24:37;3.30;;;0.80;;
31390;SDS011;18022;45.492;11.548;2022-08-11T16:27:10;0.90;;;0.85;;
31390;SDS011;18022;45.492;11.548;2022-08-11T16:29:42;4.75;;;0.93;;
31390;SDS011;18022;45.492;11.548;2022-08-11T16:32:11;2.63;;;0.90;;
31390;SDS011;18022;45.492;11.548;2022-08-11T16:34:41;2.67;;;0.85;;
31390;SDS011;18022;45.492;11.548;2022-08-11T16:37:35;2.05;;;0.88;;
31390;SDS011;18022;45.492;11.548;2022-08-11T16:40:20;3.08;;;0.90;;
31390;SDS011;18022;45.492;11.548;2022-08-11T16:42:47;1.80;;;0.80;;
31390;SDS011;18022;45.492;11.548;2022-08-11T16:45:33;5.40;;;1.33;;
31390;SDS011;18022;45.492;11.548;2022-08-11T16:48:21;2.72;;;1.17;;
31390;SDS011;18022;45.492;11.548;2022-08-11T16:50:52;1.20;;;0.80;;
31390;SDS011;18022;45.492;11.548;2022-08-11T16:53:18;3.17;;;1.05;;
31390;SDS011;18022;45.492;11.548;2022-08-11T16:55:44;5.15;;;1.20;;
31390;SDS011;18022;45.492;11.548;2022-08-11T16:58:12;1.85;;;1.10;;
31390;SDS011;18022;45.492;11.548;2022-08-11T17:00:57;0.80;;;0.80;;
31390;SDS011;18022;45.492;11.548;2022-08-11T17:03:26;2.47;;;0.77;;
31390;SDS011;18022;45.492;11.548;2022-08-11T17:06:10;2.58;;;1.00;;
31390;SDS011;18022;45.492;11.548;2022-08-11T17:08:55;4.15;;;1.05;;
31390;SDS011;18022;45.492;11.548;2022-08-11T17:11:44;2.40;;;0.90;;
31390;SDS011;18022;45.492;11.548;2022-08-11T17:14:37;2.33;;;0.90;;
31390;SDS011;18022;45.492;11.548;2022-08-11T17:17:17;5.55;;;1.00;;
31390;SDS011;18022;45.492;11.548;2022-08-11T17:19:51;1.15;;;0.90;;
31390;SDS011;18022;45.492;11.548;2022-08-11T17:22:19;4.43;;;0.80;;
31390;SDS011;18022;45.492;11.548;2022-08-11T17:25:05;1.38;;;0.90;;
31390;SDS011;18022;45.492;11.548;2022-08-11T17:27:32;2.00;;;0.90;;
31390;SDS011;18022;45.492;11.548;2022-08-11T17:30:03;1.10;;;1.00;;
31390;SDS011;18022;45.492;11.548;2022-08-11T17:32:38;1.10;;;0.90;;
31390;SDS011;18022;45.492;11.548;2022-08-11T17:35:38;4.97;;;1.00;;
31390;SDS011;18022;45.492;11.548;2022-08-11T17:38:06;1.10;;;0.93;;
31390;SDS011;18022;45.492;11.548;2022-08-11T17:40:42;1.00;;;0.90;;
31390;SDS011;18022;45.492;11.548;2022-08-11T17:43:29;1.77;;;0.95;;
31390;SDS011;18022;45.492;11.548;2022-08-11T17:46:15;1.50;;;0.90;;
31390;SDS011;18022;45.492;11.548;2022-08-11T17:49:00;1.45;;;0.90;;
31390;SDS011;18022;45.492;11.548;2022-08-11T17:51:31;3.03;;;1.02;;
31390;SDS011;18022;45.492;11.548;2022-08-11T17:54:16;1.05;;;0.95;;
31390;SDS011;18022;45.492;11.548;2022-08-11T17:57:02;4.87;;;1.10;;
31390;SDS011;18022;45.492;11.548;2022-08-11T17:59:48;7.32;;;1.02;;
31390;SDS011;18022;45.492;11.548;2022-08-11T18:02:28;5.07;;;1.10;;
31390;SDS011;18022;45.492;11.548;2022-08-11T18:05:17;1.80;;;1.13;;
31390;SDS011;18022;45.492;11.548;2022-08-11T18:07:45;1.42;;;1.10;;
31390;SDS011;18022;45.492;11.548;2022-08-11T18:13:18;1.60;;;1.00;;
31390;SDS011;18022;45.492;11.548;2022-08-11T18:16:05;2.92;;;0.90;;
31390;SDS011;18022;45.492;11.548;2022-08-11T18:18:50;1.10;;;0.90;;
31390;SDS011;18022;45.492;11.548;2022-08-11T18:21:36;2.78;;;0.93;;
31390;SDS011;18022;45.492;11.548;2022-08-11T18:24:22;2.58;;;0.80;;
31390;SDS011;18022;45.492;11.548;2022-08-11T18:27:10;2.40;;;0.98;;
31390;SDS011;18022;45.492;11.548;2022-08-11T18:29:57;2.65;;;1.10;;
31390;SDS011;18022;45.492;11.548;2022-08-11T18:32:43;2.72;;;0.95;;
31390;SDS011;18022;45.492;11.548;2022-08-11T18:35:31;1.95;;;0.80;;
31390;SDS011;18022;45.492;11.548;2022-08-11T18:38:17;1.10;;;1.00;;
31390;SDS011;18022;45.492;11.548;2022-08-11T18:41:04;6.07;;;1.20;;
31390;SDS011;18022;45.492;11.548;2022-08-11T18:43:51;1.75;;;1.10;;
31390;SDS011;18022;45.492;11.548;2022-08-11T18:46:38;1.70;;;1.00;;
31390;SDS011;18022;45.492;11.548;2022-08-11T18:49:28;1.08;;;1.00;;
31390;SDS011;18022;45.492;11.548;2022-08-11T18:52:17;5.70;;;1.08;;
31390;SDS011;18022;45.492;11.548;2022-08-11T18:55:04;3.80;;;0.95;;
31390;SDS011;18022;45.492;11.548;2022-08-11T18:57:54;0.98;;;0.90;;
31390;SDS011;18022;45.492;11.548;2022-08-11T19:00:41;3.15;;;0.90;;
31390;SDS011;18022;45.492;11.548;2022-08-11T19:03:28;2.08;;;0.93;;
31390;SDS011;18022;45.492;11.548;2022-08-11T19:06:13;2.15;;;1.10;;
31390;SDS011;18022;45.492;11.548;2022-08-11T19:09:01;1.13;;;0.90;;
31390;SDS011;18022;45.492;11.548;2022-08-11T19:11:49;1.50;;;0.95;;
31390;SDS011;18022;45.492;11.548;2022-08-11T19:14:34;1.70;;;1.10;;
31390;SDS011;18022;45.492;11.548;2022-08-11T19:17:21;1.27;;;1.10;;
31390;SDS011;18022;45.492;11.548;2022-08-11T19:20:13;5.43;;;1.10;;
31390;SDS011;18022;45.492;11.548;2022-08-11T19:23:00;3.53;;;1.10;;
31390;SDS011;18022;45.492;11.548;2022-08-11T19:25:45;1.25;;;1.00;;
31390;SDS011;18022;45.492;11.548;2022-08-11T19:28:31;3.13;;;1.05;;
31390;SDS011;18022;45.492;11.548;2022-08-11T19:31:17;6.45;;;1.25;;
31390;SDS011;18022;45.492;11.548;2022-08-11T19:34:02;2.83;;;1.08;;
31390;SDS011;18022;45.492;11.548;2022-08-11T19:36:48;3.80;;;1.17;;
31390;SDS011;18022;45.492;11.548;2022-08-11T19:39:32;2.97;;;1.27;;
31390;SDS011;18022;45.492;11.548;2022-08-11T19:42:18;1.77;;;0.95;;
31390;SDS011;18022;45.492;11.548;2022-08-11T19:45:03;1.63;;;1.00;;